sensor_id;sensor_type;location;lat;lon;timestamp;temperature;humidity
77305;DHT22;66364;52.622;7.746;2023-03-31T00:00:56;11.70;99.90
77305;DHT22;66364;52.622;7.746;2023-03-31T00:02:59;11.60;99.90
77305;DHT22;66364;52.622;7.746;2023-03-31T00:05:00;11.80;99.90
77305;DHT22;66364;52.622;7.746;2023-03-31T00:07:01;11.70;99.90
77305;DHT22;66364;52.622;7.746;2023-03-31T00:09:04;11.70;99.90
77305;DHT22;66364;52.622;7.746;2023-03-31T00:11:06;11.70;99.90
77305;DHT22;66364;52.622;7.746;2023-03-31T00:13:09;11.80;99.90
77305;DHT22;66364;52.622;7.746;2023-03-31T00:15:12;11.60;99.90
77305;DHT22;66364;52.622;7.746;2023-03-31T00:17:13;11.80;99.90
77305;DHT22;66364;52.622;7.746;2023-03-31T00:19:14;11.80;99.90
77305;DHT22;66364;52.622;7.746;2023-03-31T00:21:18;11.90;99.90
77305;DHT22;66364;52.622;7.746;2023-03-31T00:23:21;11.70;99.90
77305;DHT22;66364;52.622;7.746;2023-03-31T00:25:23;12.00;99.90
77305;DHT22;66364;52.622;7.746;2023-03-31T00:27:24;11.80;99.90
77305;DHT22;66364;52.622;7.746;2023-03-31T00:29:28;11.60;99.90
77305;DHT22;66364;52.622;7.746;2023-03-31T00:31:31;11.80;99.90
77305;DHT22;66364;52.622;7.746;2023-03-31T00:33:33;11.60;99.90
77305;DHT22;66364;52.622;7.746;2023-03-31T00:35:35;11.70;99.90
77305;DHT22;66364;52.622;7.746;2023-03-31T00:37:36;11.80;99.90
77305;DHT22;66364;52.622;7.746;2023-03-31T00:39:39;11.70;99.90
77305;DHT22;66364;52.622;7.746;2023-03-31T00:41:41;11.80;99.90
77305;DHT22;66364;52.622;7.746;2023-03-31T00:44:04;11.70;99.90
77305;DHT22;66364;52.622;7.746;2023-03-31T00:46:10;11.70;99.90
77305;DHT22;66364;52.622;7.746;2023-03-31T00:48:14;11.70;99.90
77305;DHT22;66364;52.622;7.746;2023-03-31T00:50:19;12.00;99.90
77305;DHT22;66364;52.622;7.746;2023-03-31T00:52:34;11.20;99.90
77305;DHT22;66364;52.622;7.746;2023-03-31T00:54:37;11.60;99.90
77305;DHT22;66364;52.622;7.746;2023-03-31T00:56:41;11.60;99.90
77305;DHT22;66364;52.622;7.746;2023-03-31T00:58:43;11.70;99.90
77305;DHT22;66364;52.622;7.746;2023-03-31T01:00:46;11.60;99.90
77305;DHT22;66364;52.622;7.746;2023-03-31T01:02:50;11.30;99.90
77305;DHT22;66364;52.622;7.746;2023-03-31T01:04:54;11.70;99.90
77305;DHT22;66364;52.622;7.746;2023-03-31T01:07:04;11.60;99.90
77305;DHT22;66364;52.622;7.746;2023-03-31T01:09:04;11.40;99.90
77305;DHT22;66364;52.622;7.746;2023-03-31T01:11:08;11.10;99.90
77305;DHT22;66364;52.622;7.746;2023-03-31T01:13:12;11.30;99.90
77305;DHT22;66364;52.622;7.746;2023-03-31T01:15:13;11.10;99.90
77305;DHT22;66364;52.622;7.746;2023-03-31T01:17:14;11.20;99.90
77305;DHT22;66364;52.622;7.746;2023-03-31T01:19:20;11.30;99.90
77305;DHT22;66364;52.622;7.746;2023-03-31T01:22:23;11.30;99.90
77305;DHT22;66364;52.622;7.746;2023-03-31T01:28:57;11.30;99.90
77305;DHT22;66364;52.622;7.746;2023-03-31T01:34:14;11.20;99.90
77305;DHT22;66364;52.622;7.746;2023-03-31T01:43:05;11.10;99.90
77305;DHT22;66364;52.622;7.746;2023-03-31T01:47:39;10.80;99.90
77305;DHT22;66364;52.622;7.746;2023-03-31T01:56:45;10.80;99.90
77305;DHT22;66364;52.622;7.746;2023-03-31T01:58:57;10.90;99.90
77305;DHT22;66364;52.622;7.746;2023-03-31T02:01:20;10.80;99.90
77305;DHT22;66364;52.622;7.746;2023-03-31T02:03:14;10.70;99.90
77305;DHT22;66364;52.622;7.746;2023-03-31T02:05:21;11.00;99.90
77305;DHT22;66364;52.622;7.746;2023-03-31T02:07:33;10.90;99.90
77305;DHT22;66364;52.622;7.746;2023-03-31T02:09:37;10.80;99.90
77305;DHT22;66364;52.622;7.746;2023-03-31T02:11:39;10.70;99.90
77305;DHT22;66364;52.622;7.746;2023-03-31T02:13:42;10.80;99.90
77305;DHT22;66364;52.622;7.746;2023-03-31T02:15:51;10.70;99.90
77305;DHT22;66364;52.622;7.746;2023-03-31T02:17:52;10.80;99.90
77305;DHT22;66364;52.622;7.746;2023-03-31T02:19:57;11.00;99.90
77305;DHT22;66364;52.622;7.746;2023-03-31T02:22:00;10.60;99.90
77305;DHT22;66364;52.622;7.746;2023-03-31T02:24:10;10.50;99.90
77305;DHT22;66364;52.622;7.746;2023-03-31T02:26:15;10.50;99.90
77305;DHT22;66364;52.622;7.746;2023-03-31T02:28:22;10.60;99.90
77305;DHT22;66364;52.622;7.746;2023-03-31T02:30:34;10.60;99.90
77305;DHT22;66364;52.622;7.746;2023-03-31T02:32:43;10.60;99.90
77305;DHT22;66364;52.622;7.746;2023-03-31T02:34:44;10.60;99.90
77305;DHT22;66364;52.622;7.746;2023-03-31T02:36:45;10.60;99.90
77305;DHT22;66364;52.622;7.746;2023-03-31T02:38:55;10.90;99.90
77305;DHT22;66364;52.622;7.746;2023-03-31T02:40:57;10.60;99.90
77305;DHT22;66364;52.622;7.746;2023-03-31T02:42:58;10.60;99.90
77305;DHT22;66364;52.622;7.746;2023-03-31T02:45:02;10.20;99.90
77305;DHT22;66364;52.622;7.746;2023-03-31T02:47:10;10.60;99.90
77305;DHT22;66364;52.622;7.746;2023-03-31T02:49:12;10.50;99.90
77305;DHT22;66364;52.622;7.746;2023-03-31T02:51:49;11.00;99.90
77305;DHT22;66364;52.622;7.746;2023-03-31T02:56:30;10.40;99.90
77305;DHT22;66364;52.622;7.746;2023-03-31T03:01:21;10.80;99.90
77305;DHT22;66364;52.622;7.746;2023-03-31T03:05:52;10.50;99.90
77305;DHT22;66364;52.622;7.746;2023-03-31T03:12:55;10.90;99.90
77305;DHT22;66364;52.622;7.746;2023-03-31T03:15:17;10.40;99.90
77305;DHT22;66364;52.622;7.746;2023-03-31T03:17:25;10.50;99.90
77305;DHT22;66364;52.622;7.746;2023-03-31T03:19:26;10.60;99.90
77305;DHT22;66364;52.622;7.746;2023-03-31T03:21:28;10.50;99.90
77305;DHT22;66364;52.622;7.746;2023-03-31T03:23:30;10.50;99.90
77305;DHT22;66364;52.622;7.746;2023-03-31T03:25:31;10.70;99.90
77305;DHT22;66364;52.622;7.746;2023-03-31T03:27:32;10.40;99.90
77305;DHT22;66364;52.622;7.746;2023-03-31T03:29:33;10.50;99.90
77305;DHT22;66364;52.622;7.746;2023-03-31T03:31:34;10.50;99.90
77305;DHT22;66364;52.622;7.746;2023-03-31T03:33:35;10.50;99.90
77305;DHT22;66364;52.622;7.746;2023-03-31T03:35:35;10.40;99.90
77305;DHT22;66364;52.622;7.746;2023-03-31T03:37:36;10.40;99.90
77305;DHT22;66364;52.622;7.746;2023-03-31T03:39:37;10.80;99.90
77305;DHT22;66364;52.622;7.746;2023-03-31T03:41:38;10.50;99.90
77305;DHT22;66364;52.622;7.746;2023-03-31T03:43:39;10.60;99.90
77305;DHT22;66364;52.622;7.746;2023-03-31T03:45:40;10.50;99.90
77305;DHT22;66364;52.622;7.746;2023-03-31T03:47:42;10.40;99.90
77305;DHT22;66364;52.622;7.746;2023-03-31T03:49:43;10.40;99.90
77305;DHT22;66364;52.622;7.746;2023-03-31T03:51:44;10.40;99.90
77305;DHT22;66364;52.622;7.746;2023-03-31T03:53:45;10.50;99.90
77305;DHT22;66364;52.622;7.746;2023-03-31T03:55:46;10.60;99.90
77305;DHT22;66364;52.622;7.746;2023-03-31T03:57:47;10.40;99.90
77305;DHT22;66364;52.622;7.746;2023-03-31T03:59:48;10.50;99.90
77305;DHT22;66364;52.622;7.746;2023-03-31T04:01:49;10.40;99.90
77305;DHT22;66364;52.622;7.746;2023-03-31T04:03:50;10.40;99.90
77305;DHT22;66364;52.622;7.746;2023-03-31T04:05:51;10.50;99.90
77305;DHT22;66364;52.622;7.746;2023-03-31T04:07:52;10.30;99.90
77305;DHT22;66364;52.622;7.746;2023-03-31T04:09:53;10.30;99.90
77305;DHT22;66364;52.622;7.746;2023-03-31T04:11:54;10.40;99.90
77305;DHT22;66364;52.622;7.746;2023-03-31T04:13:55;10.40;99.90
77305;DHT22;66364;52.622;7.746;2023-03-31T04:15:56;10.70;99.90
77305;DHT22;66364;52.622;7.746;2023-03-31T04:17:57;10.40;99.90
77305;DHT22;66364;52.622;7.746;2023-03-31T04:20:04;10.50;99.90
77305;DHT22;66364;52.622;7.746;2023-03-31T04:22:06;10.40;99.90
77305;DHT22;66364;52.622;7.746;2023-03-31T04:24:07;10.50;99.90
77305;DHT22;66364;52.622;7.746;2023-03-31T04:26:09;10.40;99.90
77305;DHT22;66364;52.622;7.746;2023-03-31T04:28:09;10.40;99.90
77305;DHT22;66364;52.622;7.746;2023-03-31T04:30:12;10.50;99.90
77305;DHT22;66364;52.622;7.746;2023-03-31T04:32:13;10.50;99.90
77305;DHT22;66364;52.622;7.746;2023-03-31T04:34:14;10.40;99.90
77305;DHT22;66364;52.622;7.746;2023-03-31T04:36:15;10.40;99.90
77305;DHT22;66364;52.622;7.746;2023-03-31T04:38:17;10.50;99.90
77305;DHT22;66364;52.622;7.746;2023-03-31T04:40:19;10.30;99.90
77305;DHT22;66364;52.622;7.746;2023-03-31T04:42:20;10.40;99.90
77305;DHT22;66364;52.622;7.746;2023-03-31T04:44:22;10.40;99.90
77305;DHT22;66364;52.622;7.746;2023-03-31T04:46:23;10.20;99.90
77305;DHT22;66364;52.622;7.746;2023-03-31T04:48:24;10.20;99.90
77305;DHT22;66364;52.622;7.746;2023-03-31T04:50:25;10.00;99.90
77305;DHT22;66364;52.622;7.746;2023-03-31T04:52:26;10.10;99.90
77305;DHT22;66364;52.622;7.746;2023-03-31T04:54:27;10.10;99.90
77305;DHT22;66364;52.622;7.746;2023-03-31T04:56:28;10.20;99.90
77305;DHT22;66364;52.622;7.746;2023-03-31T04:58:29;10.40;99.90
77305;DHT22;66364;52.622;7.746;2023-03-31T05:00:30;10.30;99.90
77305;DHT22;66364;52.622;7.746;2023-03-31T05:02:51;10.50;99.90
77305;DHT22;66364;52.622;7.746;2023-03-31T05:04:52;10.70;99.90
77305;DHT22;66364;52.622;7.746;2023-03-31T05:06:53;10.60;99.90
77305;DHT22;66364;52.622;7.746;2023-03-31T05:08:54;10.30;99.90
77305;DHT22;66364;52.622;7.746;2023-03-31T05:10:55;10.10;99.90
77305;DHT22;66364;52.622;7.746;2023-03-31T05:12:56;10.00;99.90
77305;DHT22;66364;52.622;7.746;2023-03-31T05:14:57;10.50;99.90
77305;DHT22;66364;52.622;7.746;2023-03-31T05:16:58;10.50;99.90
77305;DHT22;66364;52.622;7.746;2023-03-31T05:19:00;10.20;99.90
77305;DHT22;66364;52.622;7.746;2023-03-31T05:21:09;10.40;99.90
77305;DHT22;66364;52.622;7.746;2023-03-31T05:23:10;10.30;99.90
77305;DHT22;66364;52.622;7.746;2023-03-31T05:25:13;10.20;99.90
77305;DHT22;66364;52.622;7.746;2023-03-31T05:27:14;10.50;99.90
77305;DHT22;66364;52.622;7.746;2023-03-31T05:29:15;10.30;99.90
77305;DHT22;66364;52.622;7.746;2023-03-31T05:31:17;10.30;99.90
77305;DHT22;66364;52.622;7.746;2023-03-31T05:33:17;10.40;99.90
77305;DHT22;66364;52.622;7.746;2023-03-31T05:35:19;10.40;99.90
77305;DHT22;66364;52.622;7.746;2023-03-31T05:37:19;10.50;99.90
77305;DHT22;66364;52.622;7.746;2023-03-31T05:39:20;10.40;99.90
77305;DHT22;66364;52.622;7.746;2023-03-31T05:41:21;10.40;99.90
77305;DHT22;66364;52.622;7.746;2023-03-31T05:43:23;10.40;99.90
77305;DHT22;66364;52.622;7.746;2023-03-31T05:45:23;10.20;99.90
77305;DHT22;66364;52.622;7.746;2023-03-31T05:47:24;10.40;99.90
77305;DHT22;66364;52.622;7.746;2023-03-31T05:49:25;10.30;99.90
77305;DHT22;66364;52.622;7.746;2023-03-31T05:51:26;10.10;99.90
77305;DHT22;66364;52.622;7.746;2023-03-31T05:53:27;10.50;99.90
77305;DHT22;66364;52.622;7.746;2023-03-31T05:55:28;10.40;99.90
77305;DHT22;66364;52.622;7.746;2023-03-31T05:57:29;10.30;99.90
77305;DHT22;66364;52.622;7.746;2023-03-31T05:59:30;10.30;99.90
77305;DHT22;66364;52.622;7.746;2023-03-31T06:01:31;10.30;99.90
77305;DHT22;66364;52.622;7.746;2023-03-31T06:03:33;10.30;99.90
77305;DHT22;66364;52.622;7.746;2023-03-31T06:05:34;10.40;99.90
77305;DHT22;66364;52.622;7.746;2023-03-31T06:07:35;10.30;99.90
77305;DHT22;66364;52.622;7.746;2023-03-31T06:09:36;10.70;99.90
77305;DHT22;66364;52.622;7.746;2023-03-31T06:11:37;10.30;99.90
77305;DHT22;66364;52.622;7.746;2023-03-31T06:13:39;10.40;99.90
77305;DHT22;66364;52.622;7.746;2023-03-31T06:15:41;10.40;99.90
77305;DHT22;66364;52.622;7.746;2023-03-31T06:17:42;10.80;99.90
77305;DHT22;66364;52.622;7.746;2023-03-31T06:19:42;10.40;99.90
77305;DHT22;66364;52.622;7.746;2023-03-31T06:21:43;10.40;99.90
77305;DHT22;66364;52.622;7.746;2023-03-31T06:23:44;10.50;99.90
77305;DHT22;66364;52.622;7.746;2023-03-31T06:25:45;10.40;99.90
77305;DHT22;66364;52.622;7.746;2023-03-31T06:27:46;10.50;99.90
77305;DHT22;66364;52.622;7.746;2023-03-31T06:30:07;10.50;99.90
77305;DHT22;66364;52.622;7.746;2023-03-31T06:32:09;11.00;99.90
77305;DHT22;66364;52.622;7.746;2023-03-31T06:34:10;10.80;99.90
77305;DHT22;66364;52.622;7.746;2023-03-31T06:36:12;10.60;99.90
77305;DHT22;66364;52.622;7.746;2023-03-31T06:38:13;10.80;99.90
77305;DHT22;66364;52.622;7.746;2023-03-31T06:40:14;10.70;99.90
77305;DHT22;66364;52.622;7.746;2023-03-31T06:42:15;10.70;99.90
77305;DHT22;66364;52.622;7.746;2023-03-31T06:44:16;10.70;99.90
77305;DHT22;66364;52.622;7.746;2023-03-31T06:46:18;10.50;99.90
77305;DHT22;66364;52.622;7.746;2023-03-31T06:48:19;10.60;99.90
77305;DHT22;66364;52.622;7.746;2023-03-31T06:50:20;10.80;99.90
77305;DHT22;66364;52.622;7.746;2023-03-31T06:52:21;10.80;99.90
77305;DHT22;66364;52.622;7.746;2023-03-31T06:54:22;10.80;99.90
77305;DHT22;66364;52.622;7.746;2023-03-31T06:56:23;10.70;99.90
77305;DHT22;66364;52.622;7.746;2023-03-31T06:58:25;10.50;99.90
77305;DHT22;66364;52.622;7.746;2023-03-31T07:00:26;10.80;99.90
77305;DHT22;66364;52.622;7.746;2023-03-31T07:02:27;10.70;99.90
77305;DHT22;66364;52.622;7.746;2023-03-31T07:04:28;10.90;99.90
77305;DHT22;66364;52.622;7.746;2023-03-31T07:06:30;10.70;99.90
77305;DHT22;66364;52.622;7.746;2023-03-31T07:08:31;10.60;99.90
77305;DHT22;66364;52.622;7.746;2023-03-31T07:10:32;10.70;99.90
77305;DHT22;66364;52.622;7.746;2023-03-31T07:12:33;10.40;99.90
77305;DHT22;66364;52.622;7.746;2023-03-31T07:14:34;10.90;99.90
77305;DHT22;66364;52.622;7.746;2023-03-31T07:16:35;10.70;99.90
77305;DHT22;66364;52.622;7.746;2023-03-31T07:18:36;10.60;99.90
77305;DHT22;66364;52.622;7.746;2023-03-31T07:20:37;10.30;99.90
77305;DHT22;66364;52.622;7.746;2023-03-31T07:22:39;10.50;99.90
77305;DHT22;66364;52.622;7.746;2023-03-31T07:24:41;10.40;99.90
77305;DHT22;66364;52.622;7.746;2023-03-31T07:26:41;10.40;99.90
77305;DHT22;66364;52.622;7.746;2023-03-31T07:28:42;10.60;99.90
77305;DHT22;66364;52.622;7.746;2023-03-31T07:30:43;10.60;99.90
77305;DHT22;66364;52.622;7.746;2023-03-31T07:32:49;10.60;99.90
77305;DHT22;66364;52.622;7.746;2023-03-31T07:34:50;10.80;99.90
77305;DHT22;66364;52.622;7.746;2023-03-31T07:36:54;10.60;99.90
77305;DHT22;66364;52.622;7.746;2023-03-31T07:38:55;10.80;99.90
77305;DHT22;66364;52.622;7.746;2023-03-31T07:40:57;10.60;99.90
77305;DHT22;66364;52.622;7.746;2023-03-31T07:42:57;10.90;99.90
77305;DHT22;66364;52.622;7.746;2023-03-31T07:44:59;10.60;99.90
77305;DHT22;66364;52.622;7.746;2023-03-31T07:47:00;10.60;99.90
77305;DHT22;66364;52.622;7.746;2023-03-31T07:49:01;10.70;99.90
77305;DHT22;66364;52.622;7.746;2023-03-31T07:51:02;10.60;99.90
77305;DHT22;66364;52.622;7.746;2023-03-31T07:53:03;10.90;99.90
77305;DHT22;66364;52.622;7.746;2023-03-31T07:55:06;10.60;99.90
77305;DHT22;66364;52.622;7.746;2023-03-31T07:57:07;10.80;99.90
77305;DHT22;66364;52.622;7.746;2023-03-31T07:59:08;10.80;99.90
77305;DHT22;66364;52.622;7.746;2023-03-31T08:01:16;10.80;99.90
77305;DHT22;66364;52.622;7.746;2023-03-31T08:03:18;10.70;99.90
77305;DHT22;66364;52.622;7.746;2023-03-31T08:05:19;10.80;99.90
77305;DHT22;66364;52.622;7.746;2023-03-31T08:07:23;10.80;99.90
77305;DHT22;66364;52.622;7.746;2023-03-31T08:09:24;10.70;99.90
77305;DHT22;66364;52.622;7.746;2023-03-31T08:11:26;10.70;99.90
77305;DHT22;66364;52.622;7.746;2023-03-31T08:13:29;10.70;99.90
77305;DHT22;66364;52.622;7.746;2023-03-31T08:15:30;11.10;99.90
77305;DHT22;66364;52.622;7.746;2023-03-31T08:17:32;10.90;99.90
77305;DHT22;66364;52.622;7.746;2023-03-31T08:19:33;11.10;99.90
77305;DHT22;66364;52.622;7.746;2023-03-31T08:21:34;10.70;99.90
77305;DHT22;66364;52.622;7.746;2023-03-31T08:23:35;11.00;99.90
77305;DHT22;66364;52.622;7.746;2023-03-31T08:25:37;11.00;99.90
77305;DHT22;66364;52.622;7.746;2023-03-31T08:27:39;10.80;99.90
77305;DHT22;66364;52.622;7.746;2023-03-31T08:29:41;10.80;99.90
77305;DHT22;66364;52.622;7.746;2023-03-31T08:31:41;10.80;99.90
77305;DHT22;66364;52.622;7.746;2023-03-31T08:33:44;10.80;99.90
77305;DHT22;66364;52.622;7.746;2023-03-31T08:35:47;10.90;99.90
77305;DHT22;66364;52.622;7.746;2023-03-31T08:37:48;11.00;99.90
77305;DHT22;66364;52.622;7.746;2023-03-31T08:39:49;11.10;99.90
77305;DHT22;66364;52.622;7.746;2023-03-31T08:42:15;11.20;99.90
77305;DHT22;66364;52.622;7.746;2023-03-31T08:44:32;11.20;99.90
77305;DHT22;66364;52.622;7.746;2023-03-31T08:46:34;11.40;99.90
77305;DHT22;66364;52.622;7.746;2023-03-31T08:48:41;11.30;99.90
77305;DHT22;66364;52.622;7.746;2023-03-31T08:50:49;11.20;99.90
77305;DHT22;66364;52.622;7.746;2023-03-31T08:53:04;11.70;99.90
77305;DHT22;66364;52.622;7.746;2023-03-31T08:55:22;11.50;99.90
77305;DHT22;66364;52.622;7.746;2023-03-31T08:57:26;11.30;99.90
77305;DHT22;66364;52.622;7.746;2023-03-31T08:59:30;11.50;99.90
77305;DHT22;66364;52.622;7.746;2023-03-31T09:01:45;11.60;99.90
77305;DHT22;66364;52.622;7.746;2023-03-31T09:06:17;11.80;99.90
77305;DHT22;66364;52.622;7.746;2023-03-31T09:08:25;11.80;99.90
77305;DHT22;66364;52.622;7.746;2023-03-31T09:10:45;11.60;99.90
77305;DHT22;66364;52.622;7.746;2023-03-31T09:17:37;11.80;99.90
77305;DHT22;66364;52.622;7.746;2023-03-31T09:20:06;11.80;99.90
77305;DHT22;66364;52.622;7.746;2023-03-31T09:22:13;11.80;99.90
77305;DHT22;66364;52.622;7.746;2023-03-31T09:26:48;11.60;99.90
77305;DHT22;66364;52.622;7.746;2023-03-31T09:28:51;11.70;99.90
77305;DHT22;66364;52.622;7.746;2023-03-31T09:30:54;11.80;99.90
77305;DHT22;66364;52.622;7.746;2023-03-31T09:33:19;12.40;99.90
77305;DHT22;66364;52.622;7.746;2023-03-31T09:35:23;12.10;99.90
77305;DHT22;66364;52.622;7.746;2023-03-31T09:37:28;12.20;99.90
77305;DHT22;66364;52.622;7.746;2023-03-31T09:39:30;12.60;99.90
77305;DHT22;66364;52.622;7.746;2023-03-31T09:41:31;12.80;99.90
77305;DHT22;66364;52.622;7.746;2023-03-31T09:43:32;12.70;99.90
77305;DHT22;66364;52.622;7.746;2023-03-31T09:45:34;12.50;99.90
77305;DHT22;66364;52.622;7.746;2023-03-31T09:47:38;12.20;99.90
77305;DHT22;66364;52.622;7.746;2023-03-31T09:49:43;12.20;99.90
77305;DHT22;66364;52.622;7.746;2023-03-31T09:51:48;12.20;99.90
77305;DHT22;66364;52.622;7.746;2023-03-31T09:53:52;12.50;99.90
77305;DHT22;66364;52.622;7.746;2023-03-31T09:55:59;12.60;99.90
77305;DHT22;66364;52.622;7.746;2023-03-31T09:58:00;13.50;99.90
77305;DHT22;66364;52.622;7.746;2023-03-31T10:04:43;13.10;99.90
77305;DHT22;66364;52.622;7.746;2023-03-31T10:06:42;12.80;99.90
77305;DHT22;66364;52.622;7.746;2023-03-31T10:08:56;13.00;99.90
77305;DHT22;66364;52.622;7.746;2023-03-31T10:13:08;12.80;99.90
77305;DHT22;66364;52.622;7.746;2023-03-31T10:15:20;13.00;99.90
77305;DHT22;66364;52.622;7.746;2023-03-31T10:17:21;12.40;99.90
77305;DHT22;66364;52.622;7.746;2023-03-31T10:19:27;12.30;99.90
77305;DHT22;66364;52.622;7.746;2023-03-31T10:21:34;12.10;99.90
77305;DHT22;66364;52.622;7.746;2023-03-31T10:23:34;12.00;99.90
77305;DHT22;66364;52.622;7.746;2023-03-31T10:25:55;12.10;99.90
77305;DHT22;66364;52.622;7.746;2023-03-31T10:27:57;12.60;99.90
77305;DHT22;66364;52.622;7.746;2023-03-31T10:30:03;12.50;99.90
77305;DHT22;66364;52.622;7.746;2023-03-31T10:32:31;12.30;99.90
77305;DHT22;66364;52.622;7.746;2023-03-31T10:35:11;12.10;99.90
77305;DHT22;66364;52.622;7.746;2023-03-31T10:37:11;12.10;99.90
77305;DHT22;66364;52.622;7.746;2023-03-31T10:39:15;12.10;99.90
77305;DHT22;66364;52.622;7.746;2023-03-31T10:41:19;12.30;99.90
77305;DHT22;66364;52.622;7.746;2023-03-31T10:43:41;12.20;99.90
77305;DHT22;66364;52.622;7.746;2023-03-31T10:45:30;12.30;99.90
77305;DHT22;66364;52.622;7.746;2023-03-31T10:47:33;12.00;99.90
77305;DHT22;66364;52.622;7.746;2023-03-31T10:49:38;12.20;99.90
77305;DHT22;66364;52.622;7.746;2023-03-31T10:51:48;11.70;99.90
77305;DHT22;66364;52.622;7.746;2023-03-31T10:53:54;11.80;99.90
77305;DHT22;66364;52.622;7.746;2023-03-31T10:56:23;11.70;99.90
77305;DHT22;66364;52.622;7.746;2023-03-31T11:01:07;11.20;99.90
77305;DHT22;66364;52.622;7.746;2023-03-31T11:05:21;11.50;99.90
77305;DHT22;66364;52.622;7.746;2023-03-31T11:07:47;11.60;99.90
77305;DHT22;66364;52.622;7.746;2023-03-31T11:16:56;11.80;99.90
77305;DHT22;66364;52.622;7.746;2023-03-31T11:19:05;11.60;99.90
77305;DHT22;66364;52.622;7.746;2023-03-31T11:26:09;11.70;99.90
77305;DHT22;66364;52.622;7.746;2023-03-31T11:30:45;11.70;99.90
77305;DHT22;66364;52.622;7.746;2023-03-31T11:37:38;11.50;99.90
77305;DHT22;66364;52.622;7.746;2023-03-31T11:42:00;11.60;99.90
77305;DHT22;66364;52.622;7.746;2023-03-31T11:44:05;11.50;99.90
77305;DHT22;66364;52.622;7.746;2023-03-31T11:48:28;11.70;99.90
77305;DHT22;66364;52.622;7.746;2023-03-31T11:50:30;11.80;99.90
77305;DHT22;66364;52.622;7.746;2023-03-31T11:52:34;11.60;99.90
77305;DHT22;66364;52.622;7.746;2023-03-31T11:56:45;11.70;99.90
77305;DHT22;66364;52.622;7.746;2023-03-31T11:58:55;11.60;99.90
77305;DHT22;66364;52.622;7.746;2023-03-31T12:03:13;11.60;99.90
77305;DHT22;66364;52.622;7.746;2023-03-31T12:05:15;11.60;99.90
77305;DHT22;66364;52.622;7.746;2023-03-31T12:16:42;11.50;99.90
77305;DHT22;66364;52.622;7.746;2023-03-31T12:20:59;11.60;99.90
77305;DHT22;66364;52.622;7.746;2023-03-31T12:23:04;11.60;99.90
77305;DHT22;66364;52.622;7.746;2023-03-31T12:25:11;12.00;99.90
77305;DHT22;66364;52.622;7.746;2023-03-31T12:29:56;11.90;99.90
77305;DHT22;66364;52.622;7.746;2023-03-31T12:31:49;12.10;99.90
77305;DHT22;66364;52.622;7.746;2023-03-31T12:33:54;12.30;99.90
77305;DHT22;66364;52.622;7.746;2023-03-31T12:38:23;12.50;99.90
77305;DHT22;66364;52.622;7.746;2023-03-31T12:47:32;12.30;99.90
77305;DHT22;66364;52.622;7.746;2023-03-31T12:56:17;12.10;99.90
77305;DHT22;66364;52.622;7.746;2023-03-31T13:00:27;12.20;99.90
77305;DHT22;66364;52.622;7.746;2023-03-31T13:02:28;12.30;99.90
77305;DHT22;66364;52.622;7.746;2023-03-31T13:04:29;12.30;99.90
77305;DHT22;66364;52.622;7.746;2023-03-31T13:08:52;12.10;99.90
77305;DHT22;66364;52.622;7.746;2023-03-31T13:10:56;12.10;99.90
77305;DHT22;66364;52.622;7.746;2023-03-31T13:13:04;12.20;99.90
77305;DHT22;66364;52.622;7.746;2023-03-31T13:15:12;12.20;99.90
77305;DHT22;66364;52.622;7.746;2023-03-31T13:19:32;12.50;99.90
77305;DHT22;66364;52.622;7.746;2023-03-31T13:21:53;12.50;99.90
77305;DHT22;66364;52.622;7.746;2023-03-31T13:23:59;12.80;99.90
77305;DHT22;66364;52.622;7.746;2023-03-31T13:26:02;12.70;99.90
77305;DHT22;66364;52.622;7.746;2023-03-31T13:28:23;13.00;99.90
77305;DHT22;66364;52.622;7.746;2023-03-31T13:32:40;13.50;99.90
77305;DHT22;66364;52.622;7.746;2023-03-31T13:41:40;13.60;99.90
77305;DHT22;66364;52.622;7.746;2023-03-31T13:46:32;13.20;99.90
77305;DHT22;66364;52.622;7.746;2023-03-31T13:50:52;13.00;99.90
77305;DHT22;66364;52.622;7.746;2023-03-31T13:55:25;13.00;99.90
77305;DHT22;66364;52.622;7.746;2023-03-31T14:00:24;13.50;99.90
77305;DHT22;66364;52.622;7.746;2023-03-31T14:05:28;13.50;99.90
77305;DHT22;66364;52.622;7.746;2023-03-31T14:09:38;13.50;99.90
77305;DHT22;66364;52.622;7.746;2023-03-31T14:11:39;13.60;99.90
77305;DHT22;66364;52.622;7.746;2023-03-31T14:13:41;13.50;99.90
77305;DHT22;66364;52.622;7.746;2023-03-31T14:15:51;13.20;99.90
77305;DHT22;66364;52.622;7.746;2023-03-31T14:17:52;13.10;99.90
77305;DHT22;66364;52.622;7.746;2023-03-31T14:25:01;13.10;99.90
77305;DHT22;66364;52.622;7.746;2023-03-31T14:27:10;13.20;99.90
77305;DHT22;66364;52.622;7.746;2023-03-31T14:29:12;13.00;99.90
77305;DHT22;66364;52.622;7.746;2023-03-31T14:31:34;13.10;99.90
77305;DHT22;66364;52.622;7.746;2023-03-31T14:38:26;13.10;99.90
77305;DHT22;66364;52.622;7.746;2023-03-31T14:40:29;13.00;99.90
77305;DHT22;66364;52.622;7.746;2023-03-31T14:42:38;12.90;99.90
77305;DHT22;66364;52.622;7.746;2023-03-31T14:44:42;13.10;99.90
77305;DHT22;66364;52.622;7.746;2023-03-31T14:46:45;13.10;99.90
77305;DHT22;66364;52.622;7.746;2023-03-31T14:48:47;13.70;99.90
77305;DHT22;66364;52.622;7.746;2023-03-31T14:50:49;13.60;99.90
77305;DHT22;66364;52.622;7.746;2023-03-31T14:52:51;13.50;99.90
77305;DHT22;66364;52.622;7.746;2023-03-31T14:54:52;13.40;99.90
77305;DHT22;66364;52.622;7.746;2023-03-31T14:56:55;13.60;99.90
77305;DHT22;66364;52.622;7.746;2023-03-31T14:58:58;13.40;99.90
77305;DHT22;66364;52.622;7.746;2023-03-31T15:01:06;13.30;99.90
77305;DHT22;66364;52.622;7.746;2023-03-31T15:03:11;13.60;99.90
77305;DHT22;66364;52.622;7.746;2023-03-31T15:05:30;13.30;99.90
77305;DHT22;66364;52.622;7.746;2023-03-31T15:07:30;13.50;99.90
77305;DHT22;66364;52.622;7.746;2023-03-31T15:09:33;13.40;99.90
77305;DHT22;66364;52.622;7.746;2023-03-31T15:11:35;13.60;99.90
77305;DHT22;66364;52.622;7.746;2023-03-31T15:13:45;13.50;99.90
77305;DHT22;66364;52.622;7.746;2023-03-31T15:15:43;13.70;99.90
77305;DHT22;66364;52.622;7.746;2023-03-31T15:17:46;13.70;99.90
77305;DHT22;66364;52.622;7.746;2023-03-31T15:19:55;13.40;99.90
77305;DHT22;66364;52.622;7.746;2023-03-31T15:22:07;13.70;99.90
77305;DHT22;66364;52.622;7.746;2023-03-31T15:24:05;13.90;99.90
77305;DHT22;66364;52.622;7.746;2023-03-31T15:26:08;14.00;99.90
77305;DHT22;66364;52.622;7.746;2023-03-31T15:28:13;13.80;99.90
77305;DHT22;66364;52.622;7.746;2023-03-31T15:30:23;13.90;99.90
77305;DHT22;66364;52.622;7.746;2023-03-31T15:32:27;13.90;99.90
77305;DHT22;66364;52.622;7.746;2023-03-31T15:34:31;13.80;99.90
77305;DHT22;66364;52.622;7.746;2023-03-31T15:36:32;13.70;99.90
77305;DHT22;66364;52.622;7.746;2023-03-31T15:38:33;13.60;99.90
77305;DHT22;66364;52.622;7.746;2023-03-31T15:40:39;13.60;99.90
77305;DHT22;66364;52.622;7.746;2023-03-31T15:42:42;13.40;99.90